sensor_id;sensor_type;location;lat;lon;timestamp;P1;durP1;ratioP1;P2;durP2;ratioP2
1436;SDS011;712;51.026;13.792;2023-04-24T00:00:06;6.22;;;3.00;;
1436;SDS011;712;51.026;13.792;2023-04-24T00:02:31;5.32;;;2.72;;
1436;SDS011;712;51.026;13.792;2023-04-24T00:04:57;6.50;;;2.75;;
1436;SDS011;712;51.026;13.792;2023-04-24T00:07:30;6.85;;;3.50;;
1436;SDS011;712;51.026;13.792;2023-04-24T00:09:55;7.03;;;3.10;;
1436;SDS011;712;51.026;13.792;2023-04-24T00:12:21;5.27;;;2.70;;
1436;SDS011;712;51.026;13.792;2023-04-24T00:14:47;6.00;;;3.30;;
1436;SDS011;712;51.026;13.792;2023-04-24T00:17:12;6.45;;;3.30;;
1436;SDS011;712;51.026;13.792;2023-04-24T00:19:37;6.13;;;3.10;;
1436;SDS011;712;51.026;13.792;2023-04-24T00:22:03;6.97;;;3.50;;
1436;SDS011;712;51.026;13.792;2023-04-24T00:24:28;7.03;;;3.20;;
1436;SDS011;712;51.026;13.792;2023-04-24T00:26:53;6.23;;;3.07;;
1436;SDS011;712;51.026;13.792;2023-04-24T00:29:18;5.63;;;2.95;;
1436;SDS011;712;51.026;13.792;2023-04-24T00:31:43;6.67;;;3.10;;
1436;SDS011;712;51.026;13.792;2023-04-24T00:34:09;5.60;;;2.70;;
1436;SDS011;712;51.026;13.792;2023-04-24T00:36:36;6.32;;;3.05;;
1436;SDS011;712;51.026;13.792;2023-04-24T00:39:02;6.83;;;2.80;;
1436;SDS011;712;51.026;13.792;2023-04-24T00:41:27;6.07;;;2.60;;
1436;SDS011;712;51.026;13.792;2023-04-24T00:43:52;6.13;;;3.00;;
1436;SDS011;712;51.026;13.792;2023-04-24T00:46:17;6.27;;;3.03;;
1436;SDS011;712;51.026;13.792;2023-04-24T00:48:42;8.17;;;3.10;;
1436;SDS011;712;51.026;13.792;2023-04-24T00:51:08;7.22;;;3.33;;
1436;SDS011;712;51.026;13.792;2023-04-24T00:53:33;5.93;;;3.20;;
1436;SDS011;712;51.026;13.792;2023-04-24T00:55:58;8.20;;;3.00;;
1436;SDS011;712;51.026;13.792;2023-04-24T00:58:24;7.03;;;3.30;;
1436;SDS011;712;51.026;13.792;2023-04-24T01:00:50;8.13;;;3.70;;
1436;SDS011;712;51.026;13.792;2023-04-24T01:03:18;8.10;;;3.67;;
1436;SDS011;712;51.026;13.792;2023-04-24T01:05:43;7.25;;;3.20;;
1436;SDS011;712;51.026;13.792;2023-04-24T01:08:08;6.90;;;3.60;;
1436;SDS011;712;51.026;13.792;2023-04-24T01:10:33;6.25;;;2.90;;
1436;SDS011;712;51.026;13.792;2023-04-24T01:12:59;8.30;;;3.35;;
1436;SDS011;712;51.026;13.792;2023-04-24T01:15:25;8.48;;;3.13;;
1436;SDS011;712;51.026;13.792;2023-04-24T01:17:50;6.90;;;3.33;;
1436;SDS011;712;51.026;13.792;2023-04-24T01:20:15;7.90;;;4.00;;
1436;SDS011;712;51.026;13.792;2023-04-24T01:22:42;7.25;;;3.15;;
1436;SDS011;712;51.026;13.792;2023-04-24T01:25:07;5.88;;;2.97;;
1436;SDS011;712;51.026;13.792;2023-04-24T01:27:33;6.60;;;3.53;;
1436;SDS011;712;51.026;13.792;2023-04-24T01:29:58;7.07;;;3.37;;
1436;SDS011;712;51.026;13.792;2023-04-24T01:32:23;6.40;;;3.20;;
1436;SDS011;712;51.026;13.792;2023-04-24T01:34:49;6.50;;;3.47;;
1436;SDS011;712;51.026;13.792;2023-04-24T01:37:14;6.43;;;3.15;;
1436;SDS011;712;51.026;13.792;2023-04-24T01:39:40;5.85;;;3.40;;
1436;SDS011;712;51.026;13.792;2023-04-24T01:42:05;7.30;;;3.60;;
1436;SDS011;712;51.026;13.792;2023-04-24T01:44:31;6.03;;;3.38;;
1436;SDS011;712;51.026;13.792;2023-04-24T01:46:58;6.07;;;3.50;;
1436;SDS011;712;51.026;13.792;2023-04-24T01:49:23;7.93;;;3.40;;
1436;SDS011;712;51.026;13.792;2023-04-24T01:51:48;5.97;;;3.50;;
1436;SDS011;712;51.026;13.792;2023-04-24T01:54:13;6.47;;;3.70;;
1436;SDS011;712;51.026;13.792;2023-04-24T01:56:42;7.97;;;3.60;;
1436;SDS011;712;51.026;13.792;2023-04-24T01:59:07;7.30;;;3.72;;
1436;SDS011;712;51.026;13.792;2023-04-24T02:01:34;6.78;;;3.63;;
1436;SDS011;712;51.026;13.792;2023-04-24T02:04:00;7.20;;;3.55;;
1436;SDS011;712;51.026;13.792;2023-04-24T02:06:25;8.30;;;3.73;;
1436;SDS011;712;51.026;13.792;2023-04-24T02:08:51;7.13;;;3.23;;
1436;SDS011;712;51.026;13.792;2023-04-24T02:11:16;5.60;;;3.30;;
1436;SDS011;712;51.026;13.792;2023-04-24T02:13:41;6.73;;;3.77;;
1436;SDS011;712;51.026;13.792;2023-04-24T02:16:06;6.97;;;3.67;;
1436;SDS011;712;51.026;13.792;2023-04-24T02:18:31;6.27;;;3.47;;
1436;SDS011;712;51.026;13.792;2023-04-24T02:20:56;6.93;;;3.58;;
1436;SDS011;712;51.026;13.792;2023-04-24T02:23:22;6.50;;;3.28;;
1436;SDS011;712;51.026;13.792;2023-04-24T02:25:47;6.75;;;3.85;;
1436;SDS011;712;51.026;13.792;2023-04-24T02:28:12;9.80;;;3.73;;
1436;SDS011;712;51.026;13.792;2023-04-24T02:30:37;6.77;;;3.53;;
1436;SDS011;712;51.026;13.792;2023-04-24T02:33:02;5.90;;;2.83;;
1436;SDS011;712;51.026;13.792;2023-04-24T02:35:28;7.30;;;3.97;;
1436;SDS011;712;51.026;13.792;2023-04-24T02:37:53;6.87;;;3.53;;
1436;SDS011;712;51.026;13.792;2023-04-24T02:40:18;8.57;;;4.40;;
1436;SDS011;712;51.026;13.792;2023-04-24T02:42:43;7.37;;;4.00;;
1436;SDS011;712;51.026;13.792;2023-04-24T02:45:09;5.90;;;3.40;;
1436;SDS011;712;51.026;13.792;2023-04-24T02:47:35;8.02;;;3.63;;
1436;SDS011;712;51.026;13.792;2023-04-24T02:50:00;6.45;;;3.70;;
1436;SDS011;712;51.026;13.792;2023-04-24T02:52:25;8.50;;;4.20;;
1436;SDS011;712;51.026;13.792;2023-04-24T02:54:50;6.85;;;4.00;;
1436;SDS011;712;51.026;13.792;2023-04-24T02:57:15;6.15;;;3.50;;
1436;SDS011;712;51.026;13.792;2023-04-24T02:59:40;7.80;;;4.07;;
1436;SDS011;712;51.026;13.792;2023-04-24T03:02:05;6.25;;;3.83;;
1436;SDS011;712;51.026;13.792;2023-04-24T03:04:31;7.32;;;3.80;;
1436;SDS011;712;51.026;13.792;2023-04-24T03:06:56;8.43;;;4.15;;
1436;SDS011;712;51.026;13.792;2023-04-24T03:09:22;7.73;;;4.10;;
1436;SDS011;712;51.026;13.792;2023-04-24T03:11:47;9.00;;;4.22;;
1436;SDS011;712;51.026;13.792;2023-04-24T03:14:13;7.28;;;4.10;;
1436;SDS011;712;51.026;13.792;2023-04-24T03:16:38;8.50;;;4.10;;
1436;SDS011;712;51.026;13.792;2023-04-24T03:19:03;8.10;;;4.20;;
1436;SDS011;712;51.026;13.792;2023-04-24T03:21:28;9.53;;;4.67;;
1436;SDS011;712;51.026;13.792;2023-04-24T03:23:54;7.78;;;4.30;;
1436;SDS011;712;51.026;13.792;2023-04-24T03:26:19;7.22;;;4.05;;
1436;SDS011;712;51.026;13.792;2023-04-24T03:28:44;8.50;;;4.20;;
1436;SDS011;712;51.026;13.792;2023-04-24T03:31:10;8.20;;;4.75;;
1436;SDS011;712;51.026;13.792;2023-04-24T03:33:35;7.70;;;4.72;;
1436;SDS011;712;51.026;13.792;2023-04-24T03:36:01;6.70;;;3.97;;
1436;SDS011;712;51.026;13.792;2023-04-24T03:38:26;7.80;;;4.30;;
1436;SDS011;712;51.026;13.792;2023-04-24T03:40:51;8.83;;;4.40;;
1436;SDS011;712;51.026;13.792;2023-04-24T03:43:16;8.83;;;5.00;;
1436;SDS011;712;51.026;13.792;2023-04-24T03:45:41;7.93;;;3.90;;
1436;SDS011;712;51.026;13.792;2023-04-24T03:48:06;7.87;;;4.60;;
1436;SDS011;712;51.026;13.792;2023-04-24T03:50:32;6.57;;;4.00;;
1436;SDS011;712;51.026;13.792;2023-04-24T03:52:58;9.10;;;4.32;;
1436;SDS011;712;51.026;13.792;2023-04-24T03:55:24;8.30;;;4.18;;
1436;SDS011;712;51.026;13.792;2023-04-24T03:57:49;9.03;;;4.30;;
1436;SDS011;712;51.026;13.792;2023-04-24T04:00:14;7.80;;;4.22;;
1436;SDS011;712;51.026;13.792;2023-04-24T04:02:40;9.48;;;5.00;;
1436;SDS011;712;51.026;13.792;2023-04-24T04:05:05;10.83;;;5.20;;
1436;SDS011;712;51.026;13.792;2023-04-24T04:07:30;9.40;;;5.38;;
1436;SDS011;712;51.026;13.792;2023-04-24T04:09:55;8.67;;;4.60;;
1436;SDS011;712;51.026;13.792;2023-04-24T04:12:20;7.35;;;3.85;;
1436;SDS011;712;51.026;13.792;2023-04-24T04:14:45;10.52;;;4.68;;
1436;SDS011;712;51.026;13.792;2023-04-24T04:17:10;11.50;;;4.82;;
1436;SDS011;712;51.026;13.792;2023-04-24T04:19:35;9.85;;;4.75;;
1436;SDS011;712;51.026;13.792;2023-04-24T04:22:01;8.90;;;4.90;;
1436;SDS011;712;51.026;13.792;2023-04-24T04:24:26;8.90;;;4.47;;
1436;SDS011;712;51.026;13.792;2023-04-24T04:26:51;13.15;;;4.60;;
1436;SDS011;712;51.026;13.792;2023-04-24T04:29:17;13.30;;;4.85;;
1436;SDS011;712;51.026;13.792;2023-04-24T04:31:43;9.55;;;4.13;;
1436;SDS011;712;51.026;13.792;2023-04-24T04:34:08;7.53;;;4.13;;
1436;SDS011;712;51.026;13.792;2023-04-24T04:36:34;8.35;;;4.32;;
1436;SDS011;712;51.026;13.792;2023-04-24T04:39:02;6.20;;;3.58;;
1436;SDS011;712;51.026;13.792;2023-04-24T04:41:28;6.45;;;3.35;;
1436;SDS011;712;51.026;13.792;2023-04-24T04:43:54;8.73;;;3.70;;
1436;SDS011;712;51.026;13.792;2023-04-24T04:46:19;5.97;;;2.90;;
1436;SDS011;712;51.026;13.792;2023-04-24T04:48:45;7.60;;;3.17;;
1436;SDS011;712;51.026;13.792;2023-04-24T04:51:10;6.45;;;3.15;;
1436;SDS011;712;51.026;13.792;2023-04-24T04:53:35;7.40;;;2.83;;
1436;SDS011;712;51.026;13.792;2023-04-24T04:56:01;5.20;;;2.43;;
1436;SDS011;712;51.026;13.792;2023-04-24T04:58:26;5.23;;;2.37;;
1436;SDS011;712;51.026;13.792;2023-04-24T05:00:51;7.70;;;2.00;;
1436;SDS011;712;51.026;13.792;2023-04-24T05:03:17;4.95;;;1.30;;
1436;SDS011;712;51.026;13.792;2023-04-24T05:05:42;4.43;;;1.30;;
1436;SDS011;712;51.026;13.792;2023-04-24T05:08:07;4.83;;;1.17;;
1436;SDS011;712;51.026;13.792;2023-04-24T05:10:33;3.25;;;1.00;;
1436;SDS011;712;51.026;13.792;2023-04-24T05:12:58;3.30;;;1.20;;
1436;SDS011;712;51.026;13.792;2023-04-24T05:15:23;2.20;;;0.93;;
1436;SDS011;712;51.026;13.792;2023-04-24T05:17:48;3.65;;;1.00;;
1436;SDS011;712;51.026;13.792;2023-04-24T05:20:14;3.42;;;1.00;;
1436;SDS011;712;51.026;13.792;2023-04-24T05:22:39;4.75;;;1.40;;
1436;SDS011;712;51.026;13.792;2023-04-24T05:25:04;4.47;;;1.10;;
1436;SDS011;712;51.026;13.792;2023-04-24T05:27:30;3.00;;;1.00;;
1436;SDS011;712;51.026;13.792;2023-04-24T05:29:55;3.47;;;1.10;;
1436;SDS011;712;51.026;13.792;2023-04-24T05:32:21;3.93;;;1.07;;
1436;SDS011;712;51.026;13.792;2023-04-24T05:34:46;2.88;;;1.08;;
1436;SDS011;712;51.026;13.792;2023-04-24T05:37:11;3.08;;;0.80;;
1436;SDS011;712;51.026;13.792;2023-04-24T05:39:36;3.20;;;0.90;;
1436;SDS011;712;51.026;13.792;2023-04-24T05:42:02;3.17;;;0.85;;
1436;SDS011;712;51.026;13.792;2023-04-24T05:44:28;5.72;;;1.00;;
1436;SDS011;712;51.026;13.792;2023-04-24T05:46:53;3.73;;;1.00;;
1436;SDS011;712;51.026;13.792;2023-04-24T05:49:20;4.63;;;0.90;;
1436;SDS011;712;51.026;13.792;2023-04-24T05:51:45;3.10;;;0.80;;
1436;SDS011;712;51.026;13.792;2023-04-24T05:54:10;4.27;;;0.90;;
1436;SDS011;712;51.026;13.792;2023-04-24T05:56:37;2.17;;;0.73;;
1436;SDS011;712;51.026;13.792;2023-04-24T05:59:02;2.53;;;0.90;;
1436;SDS011;712;51.026;13.792;2023-04-24T06:01:28;3.70;;;0.95;;
1436;SDS011;712;51.026;13.792;2023-04-24T06:03:53;7.20;;;1.37;;
1436;SDS011;712;51.026;13.792;2023-04-24T06:06:18;4.30;;;1.63;;
1436;SDS011;712;51.026;13.792;2023-04-24T06:08:44;4.70;;;1.65;;
1436;SDS011;712;51.026;13.792;2023-04-24T06:11:10;4.10;;;1.42;;
1436;SDS011;712;51.026;13.792;2023-04-24T06:13:35;4.55;;;1.25;;
1436;SDS011;712;51.026;13.792;2023-04-24T06:16:00;4.75;;;1.40;;
1436;SDS011;712;51.026;13.792;2023-04-24T06:18:26;2.85;;;0.90;;
1436;SDS011;712;51.026;13.792;2023-04-24T06:20:51;2.13;;;0.90;;
1436;SDS011;712;51.026;13.792;2023-04-24T06:23:16;2.37;;;0.87;;
1436;SDS011;712;51.026;13.792;2023-04-24T06:25:42;3.07;;;0.83;;
1436;SDS011;712;51.026;13.792;2023-04-24T06:28:07;2.33;;;0.80;;
1436;SDS011;712;51.026;13.792;2023-04-24T06:30:32;4.88;;;0.95;;
1436;SDS011;712;51.026;13.792;2023-04-24T06:32:57;2.23;;;0.70;;
1436;SDS011;712;51.026;13.792;2023-04-24T06:35:22;3.17;;;0.70;;
1436;SDS011;712;51.026;13.792;2023-04-24T06:37:47;3.43;;;0.90;;
1436;SDS011;712;51.026;13.792;2023-04-24T06:40:13;3.13;;;0.70;;
1436;SDS011;712;51.026;13.792;2023-04-24T06:42:38;3.83;;;0.90;;
1436;SDS011;712;51.026;13.792;2023-04-24T06:45:03;2.47;;;0.75;;
1436;SDS011;712;51.026;13.792;2023-04-24T06:47:29;1.93;;;0.73;;
1436;SDS011;712;51.026;13.792;2023-04-24T06:49:54;3.60;;;0.70;;
1436;SDS011;712;51.026;13.792;2023-04-24T06:52:20;3.67;;;0.90;;
1436;SDS011;712;51.026;13.792;2023-04-24T06:54:45;2.03;;;0.60;;
1436;SDS011;712;51.026;13.792;2023-04-24T06:57:10;2.63;;;0.60;;
1436;SDS011;712;51.026;13.792;2023-04-24T06:59:36;2.17;;;0.60;;
1436;SDS011;712;51.026;13.792;2023-04-24T07:02:01;2.20;;;0.80;;
1436;SDS011;712;51.026;13.792;2023-04-24T07:04:26;2.07;;;0.63;;
1436;SDS011;712;51.026;13.792;2023-04-24T07:06:51;1.90;;;0.80;;
1436;SDS011;712;51.026;13.792;2023-04-24T07:09:17;3.45;;;1.00;;
1436;SDS011;712;51.026;13.792;2023-04-24T07:11:43;4.55;;;0.80;;
1436;SDS011;712;51.026;13.792;2023-04-24T07:14:09;3.22;;;0.90;;
1436;SDS011;712;51.026;13.792;2023-04-24T07:16:34;3.78;;;0.70;;
1436;SDS011;712;51.026;13.792;2023-04-24T07:19:00;2.38;;;0.70;;
1436;SDS011;712;51.026;13.792;2023-04-24T07:21:25;2.10;;;0.60;;
1436;SDS011;712;51.026;13.792;2023-04-24T07:23:50;2.50;;;0.80;;
1436;SDS011;712;51.026;13.792;2023-04-24T07:26:16;5.00;;;0.80;;
1436;SDS011;712;51.026;13.792;2023-04-24T07:28:41;2.90;;;0.70;;
1436;SDS011;712;51.026;13.792;2023-04-24T07:31:06;2.85;;;0.60;;
1436;SDS011;712;51.026;13.792;2023-04-24T07:33:31;3.67;;;0.90;;
1436;SDS011;712;51.026;13.792;2023-04-24T07:35:56;3.80;;;0.90;;
1436;SDS011;712;51.026;13.792;2023-04-24T07:38:22;4.53;;;1.07;;
1436;SDS011;712;51.026;13.792;2023-04-24T07:40:47;2.87;;;0.70;;
1436;SDS011;712;51.026;13.792;2023-04-24T07:43:12;3.90;;;0.80;;
1436;SDS011;712;51.026;13.792;2023-04-24T07:45:38;2.17;;;0.70;;
1436;SDS011;712;51.026;13.792;2023-04-24T07:48:04;2.83;;;0.68;;
1436;SDS011;712;51.026;13.792;2023-04-24T07:50:29;2.47;;;0.70;;
1436;SDS011;712;51.026;13.792;2023-04-24T07:52:54;3.60;;;0.70;;
1436;SDS011;712;51.026;13.792;2023-04-24T07:55:20;1.77;;;0.70;;
1436;SDS011;712;51.026;13.792;2023-04-24T07:57:45;2.10;;;0.55;;
1436;SDS011;712;51.026;13.792;2023-04-24T08:00:10;2.35;;;0.52;;
1436;SDS011;712;51.026;13.792;2023-04-24T08:02:35;2.97;;;0.60;;
1436;SDS011;712;51.026;13.792;2023-04-24T08:05:00;3.23;;;0.70;;
1436;SDS011;712;51.026;13.792;2023-04-24T08:07:26;4.20;;;0.80;;
1436;SDS011;712;51.026;13.792;2023-04-24T08:09:51;3.00;;;0.43;;
1436;SDS011;712;51.026;13.792;2023-04-24T08:12:16;2.60;;;0.70;;
1436;SDS011;712;51.026;13.792;2023-04-24T08:14:41;1.73;;;0.60;;
1436;SDS011;712;51.026;13.792;2023-04-24T08:17:06;3.70;;;0.90;;
1436;SDS011;712;51.026;13.792;2023-04-24T08:19:31;2.40;;;0.70;;
1436;SDS011;712;51.026;13.792;2023-04-24T08:21:57;2.28;;;0.60;;
1436;SDS011;712;51.026;13.792;2023-04-24T08:24:22;2.60;;;0.70;;
1436;SDS011;712;51.026;13.792;2023-04-24T08:26:47;3.00;;;1.00;;
1436;SDS011;712;51.026;13.792;2023-04-24T08:29:15;2.40;;;0.50;;
1436;SDS011;712;51.026;13.792;2023-04-24T08:31:40;2.55;;;0.73;;
1436;SDS011;712;51.026;13.792;2023-04-24T08:34:05;1.98;;;0.57;;
1436;SDS011;712;51.026;13.792;2023-04-24T08:36:31;3.67;;;0.80;;
1436;SDS011;712;51.026;13.792;2023-04-24T08:38:56;2.47;;;0.40;;
1436;SDS011;712;51.026;13.792;2023-04-24T08:41:21;1.30;;;0.40;;
1436;SDS011;712;51.026;13.792;2023-04-24T08:43:49;2.25;;;0.52;;
1436;SDS011;712;51.026;13.792;2023-04-24T08:48:41;2.22;;;0.50;;
1436;SDS011;712;51.026;13.792;2023-04-24T08:51:07;1.85;;;0.40;;
1436;SDS011;712;51.026;13.792;2023-04-24T08:53:32;1.55;;;0.50;;
1436;SDS011;712;51.026;13.792;2023-04-24T08:55:58;3.20;;;0.60;;
1436;SDS011;712;51.026;13.792;2023-04-24T08:58:26;3.15;;;0.60;;
1436;SDS011;712;51.026;13.792;2023-04-24T09:00:52;2.65;;;0.60;;
1436;SDS011;712;51.026;13.792;2023-04-24T09:03:19;2.58;;;0.80;;
1436;SDS011;712;51.026;13.792;2023-04-24T09:05:46;5.25;;;0.55;;
1436;SDS011;712;51.026;13.792;2023-04-24T09:08:11;2.15;;;0.50;;
1436;SDS011;712;51.026;13.792;2023-04-24T09:10:38;3.78;;;0.50;;
1436;SDS011;712;51.026;13.792;2023-04-24T09:13:04;2.35;;;0.70;;
1436;SDS011;712;51.026;13.792;2023-04-24T09:15:29;2.00;;;0.50;;
1436;SDS011;712;51.026;13.792;2023-04-24T09:17:54;1.10;;;0.40;;
1436;SDS011;712;51.026;13.792;2023-04-24T09:20:20;0.93;;;0.40;;
1436;SDS011;712;51.026;13.792;2023-04-24T09:22:45;1.75;;;0.50;;
1436;SDS011;712;51.026;13.792;2023-04-24T09:25:10;2.03;;;0.60;;
1436;SDS011;712;51.026;13.792;2023-04-24T09:27:38;1.75;;;0.57;;
1436;SDS011;712;51.026;13.792;2023-04-24T09:30:06;3.10;;;0.60;;
1436;SDS011;712;51.026;13.792;2023-04-24T09:32:32;2.78;;;0.70;;
1436;SDS011;712;51.026;13.792;2023-04-24T09:35:11;2.80;;;0.70;;
1436;SDS011;712;51.026;13.792;2023-04-24T09:37:37;2.47;;;0.60;;
1436;SDS011;712;51.026;13.792;2023-04-24T09:42:28;1.83;;;0.57;;
1436;SDS011;712;51.026;13.792;2023-04-24T09:44:53;2.58;;;0.60;;
1436;SDS011;712;51.026;13.792;2023-04-24T09:47:19;2.83;;;0.70;;
1436;SDS011;712;51.026;13.792;2023-04-24T09:49:45;2.55;;;0.65;;
1436;SDS011;712;51.026;13.792;2023-04-24T09:52:10;4.18;;;0.70;;
1436;SDS011;712;51.026;13.792;2023-04-24T09:54:36;1.85;;;0.60;;
1436;SDS011;712;51.026;13.792;2023-04-24T09:57:01;3.00;;;0.50;;
1436;SDS011;712;51.026;13.792;2023-04-24T09:59:27;3.07;;;0.80;;
1436;SDS011;712;51.026;13.792;2023-04-24T10:01:52;2.80;;;0.53;;
1436;SDS011;712;51.026;13.792;2023-04-24T10:04:27;1.88;;;0.50;;
1436;SDS011;712;51.026;13.792;2023-04-24T10:06:53;3.17;;;0.77;;
1436;SDS011;712;51.026;13.792;2023-04-24T10:09:19;2.22;;;0.60;;
1436;SDS011;712;51.026;13.792;2023-04-24T10:14:20;3.43;;;0.60;;
1436;SDS011;712;51.026;13.792;2023-04-24T10:16:48;3.53;;;0.50;;
1436;SDS011;712;51.026;13.792;2023-04-24T10:19:14;1.63;;;0.55;;
1436;SDS011;712;51.026;13.792;2023-04-24T10:21:40;3.15;;;0.63;;
1436;SDS011;712;51.026;13.792;2023-04-24T10:24:07;1.05;;;0.47;;
1436;SDS011;712;51.026;13.792;2023-04-24T10:26:33;2.08;;;0.80;;
1436;SDS011;712;51.026;13.792;2023-04-24T10:28:59;3.00;;;0.68;;
1436;SDS011;712;51.026;13.792;2023-04-24T10:33:51;2.03;;;0.60;;
1436;SDS011;712;51.026;13.792;2023-04-24T10:36:17;1.60;;;0.50;;
1436;SDS011;712;51.026;13.792;2023-04-24T10:38:42;1.38;;;0.38;;
1436;SDS011;712;51.026;13.792;2023-04-24T10:41:11;1.45;;;0.50;;
1436;SDS011;712;51.026;13.792;2023-04-24T10:43:45;2.30;;;0.65;;
1436;SDS011;712;51.026;13.792;2023-04-24T10:46:11;2.15;;;0.60;;
1436;SDS011;712;51.026;13.792;2023-04-24T10:48:42;1.92;;;0.60;;
1436;SDS011;712;51.026;13.792;2023-04-24T10:51:10;1.67;;;0.60;;
1436;SDS011;712;51.026;13.792;2023-04-24T10:53:36;2.28;;;0.52;;
1436;SDS011;712;51.026;13.792;2023-04-24T10:56:05;1.53;;;0.63;;
1436;SDS011;712;51.026;13.792;2023-04-24T11:01:02;2.17;;;0.82;;
1436;SDS011;712;51.026;13.792;2023-04-24T11:03:32;2.55;;;0.60;;
1436;SDS011;712;51.026;13.792;2023-04-24T11:06:09;2.00;;;0.70;;
1436;SDS011;712;51.026;13.792;2023-04-24T11:11:10;2.25;;;0.70;;
1436;SDS011;712;51.026;13.792;2023-04-24T11:14:21;2.50;;;0.80;;
1436;SDS011;712;51.026;13.792;2023-04-24T11:16:26;1.60;;;0.50;;
1436;SDS011;712;51.026;13.792;2023-04-24T11:18:51;2.35;;;0.50;;
1436;SDS011;712;51.026;13.792;2023-04-24T11:21:19;2.97;;;0.70;;
1436;SDS011;712;51.026;13.792;2023-04-24T11:23:45;1.97;;;0.60;;
1436;SDS011;712;51.026;13.792;2023-04-24T11:26:11;1.77;;;0.60;;
1436;SDS011;712;51.026;13.792;2023-04-24T11:28:36;2.50;;;0.88;;
1436;SDS011;712;51.026;13.792;2023-04-24T11:31:33;2.27;;;0.50;;
1436;SDS011;712;51.026;13.792;2023-04-24T11:33:50;1.08;;;0.50;;
1436;SDS011;712;51.026;13.792;2023-04-24T11:36:15;2.17;;;0.50;;
1436;SDS011;712;51.026;13.792;2023-04-24T11:38:40;2.43;;;0.80;;
1436;SDS011;712;51.026;13.792;2023-04-24T11:41:05;2.03;;;0.70;;
1436;SDS011;712;51.026;13.792;2023-04-24T11:45:59;1.45;;;0.55;;
1436;SDS011;712;51.026;13.792;2023-04-24T11:48:24;1.73;;;0.70;;
1436;SDS011;712;51.026;13.792;2023-04-24T11:50:49;2.93;;;0.60;;
1436;SDS011;712;51.026;13.792;2023-04-24T11:53:14;2.55;;;0.70;;
1436;SDS011;712;51.026;13.792;2023-04-24T11:55:39;2.83;;;0.60;;
1436;SDS011;712;51.026;13.792;2023-04-24T11:58:05;2.57;;;0.57;;
1436;SDS011;712;51.026;13.792;2023-04-24T12:00:31;2.22;;;0.50;;
1436;SDS011;712;51.026;13.792;2023-04-24T12:03:03;2.22;;;0.70;;
1436;SDS011;712;51.026;13.792;2023-04-24T12:05:30;2.28;;;0.70;;
1436;SDS011;712;51.026;13.792;2023-04-24T12:07:59;3.45;;;0.60;;
1436;SDS011;712;51.026;13.792;2023-04-24T12:10:25;1.80;;;0.50;;
1436;SDS011;712;51.026;13.792;2023-04-24T12:12:54;1.48;;;0.60;;
1436;SDS011;712;51.026;13.792;2023-04-24T12:15:20;2.53;;;0.77;;
1436;SDS011;712;51.026;13.792;2023-04-24T12:17:45;2.53;;;0.60;;
1436;SDS011;712;51.026;13.792;2023-04-24T12:20:10;1.45;;;0.50;;
1436;SDS011;712;51.026;13.792;2023-04-24T12:22:42;8.35;;;1.00;;
1436;SDS011;712;51.026;13.792;2023-04-24T12:25:09;1.98;;;0.57;;
1436;SDS011;712;51.026;13.792;2023-04-24T12:27:36;2.53;;;0.60;;
1436;SDS011;712;51.026;13.792;2023-04-24T12:30:02;3.63;;;0.90;;
1436;SDS011;712;51.026;13.792;2023-04-24T12:32:28;3.63;;;1.02;;
1436;SDS011;712;51.026;13.792;2023-04-24T12:34:53;2.40;;;0.90;;
1436;SDS011;712;51.026;13.792;2023-04-24T12:37:19;3.45;;;0.70;;
1436;SDS011;712;51.026;13.792;2023-04-24T12:39:46;2.58;;;0.70;;
1436;SDS011;712;51.026;13.792;2023-04-24T12:42:26;1.85;;;0.60;;
1436;SDS011;712;51.026;13.792;2023-04-24T12:44:55;3.53;;;0.60;;
1436;SDS011;712;51.026;13.792;2023-04-24T12:47:20;2.35;;;0.82;;
1436;SDS011;712;51.026;13.792;2023-04-24T12:49:45;4.75;;;0.90;;
1436;SDS011;712;51.026;13.792;2023-04-24T12:52:11;7.40;;;0.95;;
1436;SDS011;712;51.026;13.792;2023-04-24T12:54:36;2.80;;;0.80;;
1436;SDS011;712;51.026;13.792;2023-04-24T12:57:01;1.80;;;0.70;;
1436;SDS011;712;51.026;13.792;2023-04-24T12:59:26;3.85;;;0.90;;
1436;SDS011;712;51.026;13.792;2023-04-24T13:01:51;2.67;;;0.73;;
1436;SDS011;712;51.026;13.792;2023-04-24T13:04:16;3.17;;;0.77;;
1436;SDS011;712;51.026;13.792;2023-04-24T13:06:42;1.70;;;0.60;;
1436;SDS011;712;51.026;13.792;2023-04-24T13:09:07;3.05;;;0.70;;
1436;SDS011;712;51.026;13.792;2023-04-24T13:11:32;4.75;;;0.73;;
1436;SDS011;712;51.026;13.792;2023-04-24T13:13:57;2.67;;;0.70;;
1436;SDS011;712;51.026;13.792;2023-04-24T13:16:22;2.30;;;0.60;;
1436;SDS011;712;51.026;13.792;2023-04-24T13:18:48;1.55;;;0.63;;
1436;SDS011;712;51.026;13.792;2023-04-24T13:21:13;2.13;;;0.70;;
1436;SDS011;712;51.026;13.792;2023-04-24T13:23:38;2.37;;;0.80;;
1436;SDS011;712;51.026;13.792;2023-04-24T13:26:03;3.08;;;0.82;;
1436;SDS011;712;51.026;13.792;2023-04-24T13:28:28;1.90;;;0.70;;
1436;SDS011;712;51.026;13.792;2023-04-24T13:30:54;3.60;;;1.00;;
1436;SDS011;712;51.026;13.792;2023-04-24T13:33:19;2.47;;;1.10;;
1436;SDS011;712;51.026;13.792;2023-04-24T13:35:45;4.03;;;0.80;;
1436;SDS011;712;51.026;13.792;2023-04-24T13:38:10;2.58;;;0.80;;
1436;SDS011;712;51.026;13.792;2023-04-24T13:40:35;2.03;;;0.70;;
1436;SDS011;712;51.026;13.792;2023-04-24T13:43:00;2.00;;;0.80;;
1436;SDS011;712;51.026;13.792;2023-04-24T13:45:26;6.25;;;1.10;;
1436;SDS011;712;51.026;13.792;2023-04-24T13:47:51;2.40;;;0.70;;
1436;SDS011;712;51.026;13.792;2023-04-24T13:50:16;4.77;;;0.73;;
1436;SDS011;712;51.026;13.792;2023-04-24T13:52:41;2.92;;;0.80;;
1436;SDS011;712;51.026;13.792;2023-04-24T13:55:07;3.37;;;0.90;;
1436;SDS011;712;51.026;13.792;2023-04-24T13:57:32;2.17;;;0.80;;
1436;SDS011;712;51.026;13.792;2023-04-24T13:59:57;2.28;;;0.85;;
1436;SDS011;712;51.026;13.792;2023-04-24T14:02:26;2.20;;;0.80;;
1436;SDS011;712;51.026;13.792;2023-04-24T14:04:51;3.13;;;0.90;;
1436;SDS011;712;51.026;13.792;2023-04-24T14:07:16;2.38;;;1.00;;
1436;SDS011;712;51.026;13.792;2023-04-24T14:09:41;2.63;;;0.80;;
1436;SDS011;712;51.026;13.792;2023-04-24T14:12:06;4.38;;;0.88;;
1436;SDS011;712;51.026;13.792;2023-04-24T14:14:31;3.33;;;0.90;;
1436;SDS011;712;51.026;13.792;2023-04-24T14:16:57;2.60;;;0.83;;
1436;SDS011;712;51.026;13.792;2023-04-24T14:19:22;2.70;;;0.87;;
1436;SDS011;712;51.026;13.792;2023-04-24T14:21:47;3.23;;;1.10;;
1436;SDS011;712;51.026;13.792;2023-04-24T14:24:12;3.45;;;0.98;;
1436;SDS011;712;51.026;13.792;2023-04-24T14:26:37;3.57;;;0.90;;
1436;SDS011;712;51.026;13.792;2023-04-24T14:29:03;4.03;;;0.80;;
1436;SDS011;712;51.026;13.792;2023-04-24T14:31:28;2.42;;;0.85;;
1436;SDS011;712;51.026;13.792;2023-04-24T14:33:53;2.13;;;0.70;;
1436;SDS011;712;51.026;13.792;2023-04-24T14:36:18;2.70;;;0.80;;
1436;SDS011;712;51.026;13.792;2023-04-24T14:38:43;2.88;;;0.80;;
1436;SDS011;712;51.026;13.792;2023-04-24T14:41:08;4.27;;;0.90;;
1436;SDS011;712;51.026;13.792;2023-04-24T14:43:35;2.03;;;0.80;;
1436;SDS011;712;51.026;13.792;2023-04-24T14:46:00;3.17;;;1.00;;
1436;SDS011;712;51.026;13.792;2023-04-24T14:48:25;2.23;;;0.90;;
1436;SDS011;712;51.026;13.792;2023-04-24T14:50:50;3.10;;;0.93;;
1436;SDS011;712;51.026;13.792;2023-04-24T14:53:16;1.90;;;0.83;;
1436;SDS011;712;51.026;13.792;2023-04-24T14:55:41;2.67;;;0.80;;
1436;SDS011;712;51.026;13.792;2023-04-24T14:58:06;2.83;;;0.90;;
1436;SDS011;712;51.026;13.792;2023-04-24T15:00:31;2.23;;;0.80;;
1436;SDS011;712;51.026;13.792;2023-04-24T15:02:56;4.50;;;0.90;;
1436;SDS011;712;51.026;13.792;2023-04-24T15:05:22;3.25;;;1.00;;
1436;SDS011;712;51.026;13.792;2023-04-24T15:07:47;3.83;;;0.88;;
1436;SDS011;712;51.026;13.792;2023-04-24T15:10:12;2.23;;;0.80;;
1436;SDS011;712;51.026;13.792;2023-04-24T15:12:38;3.50;;;1.00;;
1436;SDS011;712;51.026;13.792;2023-04-24T15:15:03;3.40;;;1.00;;
1436;SDS011;712;51.026;13.792;2023-04-24T15:17:28;3.17;;;1.10;;
1436;SDS011;712;51.026;13.792;2023-04-24T15:19:53;4.03;;;1.10;;
1436;SDS011;712;51.026;13.792;2023-04-24T15:22:18;2.35;;;1.00;;